Time;durP1;ratioP1;P1;durP2;ratioP2;P2;SDS_P1;SDS_P2;PMS_P1;PMS_P2;Temp;Humidity;BMP_temperature;BMP_pressure;BME280_temperature;BME280_humidity;BME280_pressure;Samples;Min_cycle;Max_cycle;Signal;HPM_P1;HPM_P2
2023/10/20 00:00:18;;;;;;;13.25;7.60;;;;;;;;;;5061074;28;20045;-64
2023/10/20 00:02:47;;;;;;;13.48;6.97;;;;;;;;;;5054594;28;20512;-65
2023/10/20 00:05:14;;;;;;;11.38;6.40;;;;;;;;;;5059911;28;20048;-65
2023/10/20 00:07:42;;;;;;;11.82;6.22;;;;;;;;;;5061686;28;20049;-65
2023/10/20 00:10:11;;;;;;;12.88;6.95;;;;;;;;;;5060712;28;20052;-66
2023/10/20 00:12:38;;;;;;;11.43;6.65;;;;;;;;;;5060554;28;20051;-65
2023/10/20 00:15:07;;;;;;;11.10;6.07;;;;;;;;;;5058484;28;20052;-65
2023/10/20 00:17:34;;;;;;;10.82;6.00;;;;;;;;;;5062776;28;20041;-66
2023/10/20 00:20:03;;;;;;;10.63;5.88;;;;;;;;;;5057923;28;20067;-65
2023/10/20 00:22:31;;;;;;;10.85;6.35;;;;;;;;;;5055451;28;20092;-67
2023/10/20 00:24:58;;;;;;;11.50;6.50;;;;;;;;;;5063307;28;20047;-65
2023/10/20 00:27:25;;;;;;;14.10;6.53;;;;;;;;;;5061399;28;20059;-65
2023/10/20 00:29:53;;;;;;;12.68;6.28;;;;;;;;;;5057859;28;20051;-66
2023/10/20 00:32:20;;;;;;;11.60;6.38;;;;;;;;;;5062745;28;20053;-65
2023/10/20 00:34:47;;;;;;;12.98;6.85;;;;;;;;;;5062519;28;20070;-65
2023/10/20 00:37:16;;;;;;;12.23;5.85;;;;;;;;;;5060273;28;20052;-66
2023/10/20 00:39:43;;;;;;;13.00;6.90;;;;;;;;;;5060588;28;20048;-65
2023/10/20 00:42:10;;;;;;;10.77;6.05;;;;;;;;;;5058135;28;20049;-66
2023/10/20 00:44:38;;;;;;;11.85;6.00;;;;;;;;;;5058781;28;20041;-66
2023/10/20 00:47:06;;;;;;;9.05;5.53;;;;;;;;;;5054504;28;20103;-66
2023/10/20 00:49:33;;;;;;;11.25;5.45;;;;;;;;;;5059174;28;20045;-66
2023/10/20 00:52:01;;;;;;;9.88;5.70;;;;;;;;;;5051503;28;20539;-65
2023/10/20 00:54:30;;;;;;;11.38;5.70;;;;;;;;;;5054999;28;20098;-66
2023/10/20 00:56:58;;;;;;;13.07;5.50;;;;;;;;;;5052355;28;20111;-65
2023/10/20 00:59:25;;;;;;;11.82;5.63;;;;;;;;;;5060422;28;20045;-65
2023/10/20 01:01:52;;;;;;;15.32;5.70;;;;;;;;;;5061387;28;20147;-65
2023/10/20 01:04:20;;;;;;;10.93;5.80;;;;;;;;;;5061932;28;20075;-65
2023/10/20 01:06:49;;;;;;;12.95;6.32;;;;;;;;;;5059861;28;20080;-66
2023/10/20 01:09:23;;;;;;;9.57;5.53;;;;;;;;;;5061714;28;20165;-65
2023/10/20 01:11:52;;;;;;;13.43;6.13;;;;;;;;;;5060005;28;20497;-65
2023/10/20 01:14:19;;;;;;;12.18;6.10;;;;;;;;;;5056326;28;20040;-65
2023/10/20 01:16:47;;;;;;;11.75;5.85;;;;;;;;;;5055874;28;20515;-65
2023/10/20 01:19:14;;;;;;;11.32;5.57;;;;;;;;;;5062998;28;20052;-66
2023/10/20 01:21:42;;;;;;;11.85;5.70;;;;;;;;;;5061321;28;20060;-66
2023/10/20 01:24:11;;;;;;;11.55;5.70;;;;;;;;;;5051621;28;20052;-66
2023/10/20 01:26:38;;;;;;;12.18;5.70;;;;;;;;;;5056478;28;20040;-66
2023/10/20 01:29:09;;;;;;;10.60;5.32;;;;;;;;;;5055620;28;20052;-65
2023/10/20 01:31:37;;;;;;;10.30;5.43;;;;;;;;;;5061375;28;20058;-65
2023/10/20 01:34:05;;;;;;;13.88;6.07;;;;;;;;;;5059240;28;20049;-65
2023/10/20 01:36:32;;;;;;;13.35;5.00;;;;;;;;;;5062005;28;20068;-65
2023/10/20 01:38:59;;;;;;;12.50;5.50;;;;;;;;;;5062205;28;20056;-66
2023/10/20 01:41:28;;;;;;;11.60;5.40;;;;;;;;;;5064646;28;20084;-67
2023/10/20 01:43:55;;;;;;;12.25;5.57;;;;;;;;;;5062374;28;20048;-65
2023/10/20 01:46:22;;;;;;;11.00;4.90;;;;;;;;;;5063786;28;20499;-66
2023/10/20 01:48:49;;;;;;;10.40;5.25;;;;;;;;;;5063056;28;20052;-66
2023/10/20 01:51:17;;;;;;;14.55;5.85;;;;;;;;;;5069788;28;20399;-69
2023/10/20 01:53:45;;;;;;;14.13;5.53;;;;;;;;;;5061570;28;20052;-65
2023/10/20 01:56:13;;;;;;;9.60;5.18;;;;;;;;;;5057180;28;20551;-65
2023/10/20 01:58:41;;;;;;;10.18;5.82;;;;;;;;;;5059779;28;20045;-64
2023/10/20 02:01:09;;;;;;;13.65;6.05;;;;;;;;;;5061362;28;20056;-66
2023/10/20 02:03:37;;;;;;;13.93;5.75;;;;;;;;;;5064417;28;20056;-66
2023/10/20 02:06:04;;;;;;;12.02;5.80;;;;;;;;;;5059163;28;20048;-65
2023/10/20 02:08:32;;;;;;;14.32;6.45;;;;;;;;;;5064353;28;20057;-65
2023/10/20 02:10:59;;;;;;;14.25;6.60;;;;;;;;;;5060573;28;20067;-65
2023/10/20 02:13:27;;;;;;;12.25;5.90;;;;;;;;;;5064592;28;20229;-64
2023/10/20 02:15:56;;;;;;;14.93;6.80;;;;;;;;;;5063641;28;20511;-65
2023/10/20 02:18:23;;;;;;;12.32;6.80;;;;;;;;;;5064384;28;20052;-65
2023/10/20 02:21:03;;;;;;;13.60;6.47;;;;;;;;;;5059952;28;20043;-66
2023/10/20 02:23:30;;;;;;;15.05;6.40;;;;;;;;;;5061865;28;20048;-66
2023/10/20 02:25:58;;;;;;;18.00;6.78;;;;;;;;;;5065114;28;20056;-66
2023/10/20 02:28:26;;;;;;;17.05;6.78;;;;;;;;;;5064049;28;20040;-65
2023/10/20 02:30:53;;;;;;;14.43;6.82;;;;;;;;;;5068814;28;20064;-65
2023/10/20 02:33:22;;;;;;;15.60;6.93;;;;;;;;;;5061724;28;20508;-64
2023/10/20 02:35:49;;;;;;;18.45;7.28;;;;;;;;;;5057079;28;20064;-65
2023/10/20 02:38:17;;;;;;;16.55;7.43;;;;;;;;;;5052135;28;20067;-65
2023/10/20 02:40:50;;;;;;;16.83;6.88;;;;;;;;;;5060744;28;20047;-66
2023/10/20 02:43:17;;;;;;;16.55;6.82;;;;;;;;;;5058278;28;20110;-65
2023/10/20 02:45:48;;;;;;;15.25;6.95;;;;;;;;;;5065891;28;20065;-65
2023/10/20 02:48:16;;;;;;;17.58;7.20;;;;;;;;;;5053135;28;20099;-65
2023/10/20 02:50:44;;;;;;;17.85;7.80;;;;;;;;;;5055312;28;20060;-66
2023/10/20 02:53:13;;;;;;;22.38;8.40;;;;;;;;;;5061931;28;20044;-66
2023/10/20 02:55:41;;;;;;;18.98;8.50;;;;;;;;;;5052748;28;20049;-68
2023/10/20 02:58:10;;;;;;;21.90;8.40;;;;;;;;;;5053220;28;20408;-65
2023/10/20 03:00:38;;;;;;;19.50;8.35;;;;;;;;;;5057267;28;20144;-65
2023/10/20 03:03:06;;;;;;;19.42;8.27;;;;;;;;;;5062254;28;20052;-65
2023/10/20 03:05:34;;;;;;;17.52;8.18;;;;;;;;;;5057489;28;20396;-65
2023/10/20 03:08:04;;;;;;;21.35;8.68;;;;;;;;;;5058654;28;20140;-65
2023/10/20 03:10:31;;;;;;;17.58;8.68;;;;;;;;;;5065024;28;20052;-65
2023/10/20 03:12:58;;;;;;;17.73;8.50;;;;;;;;;;5052069;28;20052;-65
2023/10/20 03:15:26;;;;;;;21.88;9.35;;;;;;;;;;5056096;28;20045;-65
2023/10/20 03:17:53;;;;;;;19.90;9.13;;;;;;;;;;5060072;28;20306;-66
2023/10/20 03:20:28;;;;;;;20.25;9.63;;;;;;;;;;5058061;28;20048;-65
2023/10/20 03:22:55;;;;;;;20.73;9.07;;;;;;;;;;5061884;28;20055;-65
2023/10/20 03:25:24;;;;;;;20.02;9.77;;;;;;;;;;5057838;28;20048;-65
2023/10/20 03:27:51;;;;;;;18.10;8.73;;;;;;;;;;5060101;28;20128;-64
2023/10/20 03:30:19;;;;;;;21.00;9.32;;;;;;;;;;5061211;28;20056;-65
2023/10/20 03:32:49;;;;;;;24.23;9.65;;;;;;;;;;5056580;28;20052;-65
2023/10/20 03:35:17;;;;;;;20.75;9.57;;;;;;;;;;5066404;28;20057;-66
2023/10/20 03:37:44;;;;;;;20.77;9.38;;;;;;;;;;5060682;28;20061;-66
2023/10/20 03:40:14;;;;;;;25.95;9.25;;;;;;;;;;5059918;28;20040;-66
2023/10/20 03:42:44;;;;;;;22.75;10.10;;;;;;;;;;5064077;28;20057;-66
2023/10/20 03:45:14;;;;;;;25.42;10.07;;;;;;;;;;5060845;28;20052;-65
2023/10/20 03:47:43;;;;;;;28.38;10.35;;;;;;;;;;5065533;28;20045;-65
2023/10/20 03:50:15;;;;;;;20.05;9.95;;;;;;;;;;5058052;28;20085;-65
2023/10/20 03:52:45;;;;;;;23.88;10.07;;;;;;;;;;5059331;28;20135;-67
2023/10/20 03:55:14;;;;;;;24.67;9.82;;;;;;;;;;5062792;28;20049;-66
2023/10/20 03:57:44;;;;;;;21.05;9.57;;;;;;;;;;5067597;28;20049;-65
2023/10/20 04:00:28;;;;;;;22.77;10.07;;;;;;;;;;5056162;28;20047;-66
2023/10/20 04:02:55;;;;;;;;;;;;;;;;;;5060039;28;20123;-66
2023/10/20 04:05:22;;;;;;;26.52;10.35;;;;;;;;;;5063045;28;19928;-65
2023/10/20 04:07:50;;;;;;;21.15;9.75;;;;;;;;;;5057088;28;20396;-66
2023/10/20 04:10:19;;;;;;;27.63;10.40;;;;;;;;;;5058900;28;20492;-65
2023/10/20 04:12:48;;;;;;;20.02;9.48;;;;;;;;;;5058175;28;20102;-65
2023/10/20 04:15:17;;;;;;;23.98;10.32;;;;;;;;;;5055035;28;20057;-65
2023/10/20 04:17:51;;;;;;;21.38;9.98;;;;;;;;;;5060791;28;20510;-66
2023/10/20 04:20:19;;;;;;;21.17;10.23;;;;;;;;;;5060548;28;20129;-66
2023/10/20 04:22:50;;;;;;;23.17;10.82;;;;;;;;;;5060812;28;20040;-65
2023/10/20 04:25:18;;;;;;;21.25;9.48;;;;;;;;;;5053070;28;20049;-66
2023/10/20 04:27:49;;;;;;;22.83;9.52;;;;;;;;;;5058559;28;20115;-65
2023/10/20 04:50:17;;;;;;;16.30;8.05;;;;;;;;;;5065140;28;20046;-66
2023/10/20 04:58:20;;;;;;;15.60;7.28;;;;;;;;;;5059587;28;20055;-66
2023/10/20 05:00:55;;;;;;;14.80;7.20;;;;;;;;;;5062487;28;20041;-65
2023/10/20 05:03:31;;;;;;;17.33;7.47;;;;;;;;;;5061538;28;20161;-65
2023/10/20 05:06:19;;;;;;;13.73;6.80;;;;;;;;;;5058344;28;20052;-66
2023/10/20 05:08:47;;;;;;;13.63;7.05;;;;;;;;;;5059679;28;20411;-66
2023/10/20 05:11:15;;;;;;;14.02;6.88;;;;;;;;;;5059595;28;20060;-65
2023/10/20 05:13:42;;;;;;;12.70;6.72;;;;;;;;;;5062759;28;20559;-66
2023/10/20 05:16:10;;;;;;;10.23;5.65;;;;;;;;;;5058218;28;20052;-65
2023/10/20 05:18:39;;;;;;;15.95;6.40;;;;;;;;;;5064131;28;20052;-65
2023/10/20 05:21:08;;;;;;;11.45;6.22;;;;;;;;;;5069348;28;20110;-67
2023/10/20 05:23:36;;;;;;;12.50;6.75;;;;;;;;;;5063110;28;20045;-65
2023/10/20 05:26:03;;;;;;;13.60;6.10;;;;;;;;;;5060327;28;20092;-66
2023/10/20 05:28:30;;;;;;;12.27;6.38;;;;;;;;;;5054594;28;20049;-66
2023/10/20 05:30:58;;;;;;;14.38;6.03;;;;;;;;;;5059133;28;20056;-65
2023/10/20 05:33:26;;;;;;;10.13;5.53;;;;;;;;;;5061866;28;20500;-68
2023/10/20 05:35:54;;;;;;;11.38;5.95;;;;;;;;;;5057242;28;20037;-65
2023/10/20 05:38:22;;;;;;;10.73;5.13;;;;;;;;;;5065260;28;20052;-65
2023/10/20 05:40:57;;;;;;;11.75;5.10;;;;;;;;;;5066423;28;20048;-66
2023/10/20 05:43:25;;;;;;;10.57;5.18;;;;;;;;;;5062168;28;20065;-66
2023/10/20 05:45:52;;;;;;;14.05;5.97;;;;;;;;;;5055868;28;20057;-65
2023/10/20 05:48:19;;;;;;;9.60;5.63;;;;;;;;;;5057757;28;20052;-67
2023/10/20 05:50:46;;;;;;;8.73;4.50;;;;;;;;;;5057883;28;20048;-65
2023/10/20 05:53:15;;;;;;;8.73;4.82;;;;;;;;;;5057914;28;20049;-66
2023/10/20 05:55:43;;;;;;;6.95;4.75;;;;;;;;;;5062306;28;20105;-65
2023/10/20 05:58:10;;;;;;;7.55;4.28;;;;;;;;;;5063884;28;20454;-65
2023/10/20 06:00:38;;;;;;;7.90;4.10;;;;;;;;;;5060347;28;20188;-66
2023/10/20 06:03:07;;;;;;;8.85;4.25;;;;;;;;;;5060814;28;20056;-66
2023/10/20 06:05:34;;;;;;;9.05;4.00;;;;;;;;;;5058170;28;20487;-65
2023/10/20 06:08:02;;;;;;;7.90;4.53;;;;;;;;;;5062558;28;20048;-65
2023/10/20 06:10:32;;;;;;;8.23;3.85;;;;;;;;;;5061376;28;20072;-66
2023/10/20 06:12:59;;;;;;;9.43;4.38;;;;;;;;;;5061745;28;20424;-66
2023/10/20 06:15:26;;;;;;;7.22;3.78;;;;;;;;;;5060972;28;20379;-65
2023/10/20 06:17:53;;;;;;;8.10;3.78;;;;;;;;;;5056331;28;20048;-65
2023/10/20 06:20:21;;;;;;;6.85;3.47;;;;;;;;;;5054435;28;20396;-68
2023/10/20 06:22:49;;;;;;;7.97;3.35;;;;;;;;;;5058697;28;20087;-66
2023/10/20 06:25:17;;;;;;;6.60;2.88;;;;;;;;;;5059891;28;20041;-66
2023/10/20 06:27:46;;;;;;;6.40;3.10;;;;;;;;;;5056556;28;20055;-65
2023/10/20 06:30:19;;;;;;;10.50;3.22;;;;;;;;;;5061133;28;20380;-67
2023/10/20 06:32:52;;;;;;;6.65;2.97;;;;;;;;;;5056732;28;20049;-66
2023/10/20 06:35:22;;;;;;;5.32;2.78;;;;;;;;;;5059350;28;20051;-67
2023/10/20 06:37:55;;;;;;;4.57;2.38;;;;;;;;;;5057028;28;20056;-66
2023/10/20 06:40:23;;;;;;;5.43;2.63;;;;;;;;;;5061417;28;20052;-66
2023/10/20 06:42:52;;;;;;;4.43;2.30;;;;;;;;;;5056500;28;20045;-66
2023/10/20 06:45:19;;;;;;;5.35;2.28;;;;;;;;;;5062863;28;20091;-66
2023/10/20 06:47:47;;;;;;;5.05;1.80;;;;;;;;;;5059151;28;20040;-66
2023/10/20 06:50:14;;;;;;;4.53;2.03;;;;;;;;;;5054900;28;20083;-66
2023/10/20 06:52:41;;;;;;;5.22;2.25;;;;;;;;;;5055373;28;20516;-66
2023/10/20 06:55:09;;;;;;;3.90;2.22;;;;;;;;;;5060527;28;20060;-67
2023/10/20 06:57:36;;;;;;;4.60;2.10;;;;;;;;;;5066385;28;20723;-66
2023/10/20 07:00:16;;;;;;;5.40;2.53;;;;;;;;;;5057757;28;20061;-65
2023/10/20 07:02:43;;;;;;;4.88;2.42;;;;;;;;;;5054551;28;20045;-66
2023/10/20 07:05:11;;;;;;;5.28;1.75;;;;;;;;;;5053507;28;20045;-66
2023/10/20 07:07:38;;;;;;;4.10;1.77;;;;;;;;;;5064704;28;20063;-66
2023/10/20 07:10:10;;;;;;;3.95;2.13;;;;;;;;;;5062957;28;20158;-65
2023/10/20 07:12:37;;;;;;;4.55;1.83;;;;;;;;;;5061423;28;20048;-65
2023/10/20 07:15:06;;;;;;;4.72;2.22;;;;;;;;;;5060537;28;20053;-65
2023/10/20 07:17:34;;;;;;;5.40;2.15;;;;;;;;;;5061824;28;20057;-65
2023/10/20 07:20:04;;;;;;;4.28;2.00;;;;;;;;;;5061096;28;20052;-65
2023/10/20 07:22:32;;;;;;;8.15;1.90;;;;;;;;;;5064242;28;20135;-65
2023/10/20 07:24:59;;;;;;;5.28;2.42;;;;;;;;;;5057127;28;20693;-66
2023/10/20 07:27:26;;;;;;;4.05;1.67;;;;;;;;;;5060058;28;20056;-66
2023/10/20 07:29:54;;;;;;;3.40;2.05;;;;;;;;;;5058915;28;20049;-65
2023/10/20 07:32:22;;;;;;;5.45;2.17;;;;;;;;;;5051096;28;20500;-67
2023/10/20 07:34:49;;;;;;;4.38;1.83;;;;;;;;;;5061883;28;20121;-66
2023/10/20 07:37:17;;;;;;;5.88;2.15;;;;;;;;;;5060996;28;20088;-66
2023/10/20 07:39:45;;;;;;;4.57;2.13;;;;;;;;;;5059679;28;20400;-66
2023/10/20 07:42:12;;;;;;;5.20;2.47;;;;;;;;;;5057687;28;20045;-70
2023/10/20 07:44:40;;;;;;;3.45;1.80;;;;;;;;;;5055179;28;20392;-70
2023/10/20 07:47:07;;;;;;;4.65;2.28;;;;;;;;;;5058250;28;20083;-70
2023/10/20 07:49:36;;;;;;;4.93;2.42;;;;;;;;;;5058035;28;20048;-70
2023/10/20 07:52:03;;;;;;;4.70;2.28;;;;;;;;;;5060397;28;20431;-70
2023/10/20 07:54:30;;;;;;;4.53;2.25;;;;;;;;;;5051181;28;20052;-70
2023/10/20 07:56:58;;;;;;;5.25;1.83;;;;;;;;;;5054305;28;20044;-70
2023/10/20 07:59:25;;;;;;;4.93;1.80;;;;;;;;;;5060553;28;20048;-70
2023/10/20 08:01:53;;;;;;;3.40;1.77;;;;;;;;;;5049784;28;20048;-70
2023/10/20 08:04:20;;;;;;;3.35;1.70;;;;;;;;;;5059779;28;20060;-70
2023/10/20 08:06:50;;;;;;;4.43;1.80;;;;;;;;;;5059519;28;20415;-70
2023/10/20 08:09:19;;;;;;;6.57;1.85;;;;;;;;;;5056750;28;20487;-70
2023/10/20 08:11:46;;;;;;;2.83;1.70;;;;;;;;;;5055553;28;20049;-69
2023/10/20 08:14:13;;;;;;;4.57;1.75;;;;;;;;;;5055039;28;20049;-70
2023/10/20 08:16:41;;;;;;;3.72;1.58;;;;;;;;;;5058329;28;20175;-70
2023/10/20 08:19:08;;;;;;;8.40;1.45;;;;;;;;;;5056998;28;20138;-70
2023/10/20 08:21:36;;;;;;;4.63;1.60;;;;;;;;;;5067144;28;20102;-69
2023/10/20 08:24:06;;;;;;;2.75;1.38;;;;;;;;;;5059854;28;20385;-70
2023/10/20 08:26:34;;;;;;;3.78;1.48;;;;;;;;;;5048932;28;20052;-71
2023/10/20 08:29:06;;;;;;;3.33;1.30;;;;;;;;;;5052588;28;20053;-70
2023/10/20 08:31:33;;;;;;;5.40;1.83;;;;;;;;;;5061730;28;20053;-69
2023/10/20 08:34:01;;;;;;;4.82;1.77;;;;;;;;;;5052512;28;20053;-71
2023/10/20 08:36:28;;;;;;;2.75;1.55;;;;;;;;;;5053761;28;20411;-70
2023/10/20 08:38:56;;;;;;;4.22;1.60;;;;;;;;;;5051968;28;20056;-70
2023/10/20 08:41:25;;;;;;;3.78;1.73;;;;;;;;;;5058233;28;20153;-70
2023/10/20 08:43:53;;;;;;;4.45;1.70;;;;;;;;;;5058637;28;20141;-70
2023/10/20 08:46:22;;;;;;;4.82;1.77;;;;;;;;;;5058751;28;20523;-70
2023/10/20 08:48:49;;;;;;;2.80;1.50;;;;;;;;;;5058257;28;20049;-70
2023/10/20 08:51:18;;;;;;;6.50;1.50;;;;;;;;;;5057494;28;20060;-70
2023/10/20 08:53:46;;;;;;;3.00;1.38;;;;;;;;;;5062695;28;20056;-70
2023/10/20 08:56:14;;;;;;;3.33;1.67;;;;;;;;;;5059411;28;20060;-70
2023/10/20 08:58:46;;;;;;;5.25;1.63;;;;;;;;;;5064857;28;20488;-69
2023/10/20 09:01:13;;;;;;;3.55;1.60;;;;;;;;;;5068695;28;20560;-70
2023/10/20 09:03:41;;;;;;;3.70;1.33;;;;;;;;;;5062065;28;20057;-70
2023/10/20 09:06:10;;;;;;;3.15;1.42;;;;;;;;;;5059979;28;20150;-70
2023/10/20 09:08:38;;;;;;;3.38;1.60;;;;;;;;;;5065767;28;20056;-70
2023/10/20 09:11:07;;;;;;;3.08;1.38;;;;;;;;;;5059975;28;20086;-69
2023/10/20 09:13:36;;;;;;;3.30;1.52;;;;;;;;;;5065606;28;20048;-70
2023/10/20 09:16:08;;;;;;;5.07;1.80;;;;;;;;;;5059370;28;20416;-70
2023/10/20 09:18:42;;;;;;;2.60;1.30;;;;;;;;;;5059560;28;20044;-69
2023/10/20 09:21:09;;;;;;;2.58;1.33;;;;;;;;;;5059351;28;20569;-69
2023/10/20 09:23:37;;;;;;;4.25;1.33;;;;;;;;;;5060269;28;20049;-69
2023/10/20 09:26:04;;;;;;;2.60;1.42;;;;;;;;;;5061707;28;20122;-70
2023/10/20 09:28:32;;;;;;;4.15;2.20;;;;;;;;;;5061551;28;20514;-70
2023/10/20 09:31:00;;;;;;;2.83;1.40;;;;;;;;;;5063176;28;20057;-70
2023/10/20 09:33:29;;;;;;;2.10;1.02;;;;;;;;;;5064644;28;20049;-70
2023/10/20 09:35:57;;;;;;;1.92;1.10;;;;;;;;;;5057410;28;20071;-70
2023/10/20 09:38:26;;;;;;;1.20;0.90;;;;;;;;;;5058880;28;20084;-70
2023/10/20 09:40:57;;;;;;;1.70;0.82;;;;;;;;;;5066895;28;20076;-70
2023/10/20 09:43:27;;;;;;;1.35;0.90;;;;;;;;;;5067530;28;20388;-70
2023/10/20 09:45:58;;;;;;;2.35;0.73;;;;;;;;;;5058030;28;20193;-70
2023/10/20 09:48:25;;;;;;;2.50;0.98;;;;;;;;;;5060756;28;20392;-70
2023/10/20 09:50:55;;;;;;;1.23;0.90;;;;;;;;;;5060810;28;20071;-69
2023/10/20 09:53:22;;;;;;;0.80;0.60;;;;;;;;;;5058910;28;20049;-69
2023/10/20 09:55:49;;;;;;;2.20;0.80;;;;;;;;;;5062015;28;20049;-70
2023/10/20 09:58:25;;;;;;;2.60;0.80;;;;;;;;;;5065028;28;20060;-70
2023/10/20 10:00:52;;;;;;;3.20;0.95;;;;;;;;;;5052988;28;20049;-70
2023/10/20 10:03:28;;;;;;;1.70;0.90;;;;;;;;;;5060855;28;20526;-70
2023/10/20 10:05:57;;;;;;;4.57;0.90;;;;;;;;;;5063894;28;20043;-71
2023/10/20 10:08:26;;;;;;;1.73;0.80;;;;;;;;;;5065191;28;20675;-70
2023/10/20 10:10:54;;;;;;;1.10;0.70;;;;;;;;;;5064642;28;20040;-70
2023/10/20 10:13:33;;;;;;;1.10;0.68;;;;;;;;;;5057696;28;20052;-69
2023/10/20 10:16:13;;;;;;;2.60;1.00;;;;;;;;;;5060112;28;20408;-70
2023/10/20 10:18:46;;;;;;;2.47;1.02;;;;;;;;;;5059552;28;20051;-70
2023/10/20 10:21:25;;;;;;;2.08;1.05;;;;;;;;;;5058983;28;20049;-70
2023/10/20 10:24:13;;;;;;;1.20;0.75;;;;;;;;;;5061248;28;20472;-70
2023/10/20 10:26:48;;;;;;;2.08;0.90;;;;;;;;;;5058000;28;20063;-70
2023/10/20 10:29:15;;;;;;;1.13;0.75;;;;;;;;;;5058653;28;20606;-70
2023/10/20 10:31:42;;;;;;;1.67;0.70;;;;;;;;;;5065490;28;20510;-70
2023/10/20 10:34:10;;;;;;;1.63;0.80;;;;;;;;;;5061909;28;20052;-70
2023/10/20 10:36:45;;;;;;;1.40;0.70;;;;;;;;;;5058536;28;20508;-73
2023/10/20 10:39:21;;;;;;;1.13;0.60;;;;;;;;;;5064171;28;20052;-73
2023/10/20 10:41:49;;;;;;;1.95;0.60;;;;;;;;;;5059487;28;20094;-72
2023/10/20 10:44:16;;;;;;;1.23;0.60;;;;;;;;;;5052618;28;20079;-72
2023/10/20 10:46:43;;;;;;;1.48;0.70;;;;;;;;;;5059976;28;20053;-72
2023/10/20 10:49:10;;;;;;;1.05;0.60;;;;;;;;;;5056791;28;20052;-72
2023/10/20 10:51:44;;;;;;;2.08;0.80;;;;;;;;;;5061862;28;20060;-72
2023/10/20 10:54:12;;;;;;;1.88;0.63;;;;;;;;;;5054227;28;20086;-72
2023/10/20 10:56:41;;;;;;;1.02;0.50;;;;;;;;;;5060683;28;20052;-72
2023/10/20 10:59:09;;;;;;;1.17;0.60;;;;;;;;;;5066159;28;20078;-73
2023/10/20 11:01:38;;;;;;;1.08;0.60;;;;;;;;;;5058333;28;20510;-73
2023/10/20 11:04:06;;;;;;;0.85;0.60;;;;;;;;;;5060727;28;20127;-72
2023/10/20 11:06:37;;;;;;;0.73;0.50;;;;;;;;;;5060762;28;20609;-72
2023/10/20 11:09:10;;;;;;;0.93;0.50;;;;;;;;;;5059345;28;20471;-72
2023/10/20 11:11:42;;;;;;;1.23;0.60;;;;;;;;;;5060497;28;20052;-73
2023/10/20 11:14:09;;;;;;;0.77;0.57;;;;;;;;;;5057793;28;20053;-74
2023/10/20 11:16:37;;;;;;;1.55;0.45;;;;;;;;;;5057175;28;20523;-74
2023/10/20 11:19:04;;;;;;;0.82;0.50;;;;;;;;;;5062111;28;20558;-72
2023/10/20 11:21:43;;;;;;;1.00;0.45;;;;;;;;;;5059555;28;20049;-73
2023/10/20 11:24:11;;;;;;;1.77;0.63;;;;;;;;;;5049526;28;20488;-73
2023/10/20 11:26:38;;;;;;;2.50;0.50;;;;;;;;;;5055495;28;20524;-73
2023/10/20 11:29:08;;;;;;;1.02;0.45;;;;;;;;;;5057859;28;20534;-73
2023/10/20 11:31:37;;;;;;;2.78;0.50;;;;;;;;;;5057611;28;20049;-74
2023/10/20 11:34:04;;;;;;;1.60;0.70;;;;;;;;;;5061609;28;20084;-73
2023/10/20 11:36:32;;;;;;;0.52;0.45;;;;;;;;;;5067818;28;20776;-74
2023/10/20 11:39:00;;;;;;;0.90;0.47;;;;;;;;;;5058250;28;20057;-72
2023/10/20 11:41:28;;;;;;;1.35;0.55;;;;;;;;;;5057851;28;20117;-72
2023/10/20 11:43:56;;;;;;;0.63;0.38;;;;;;;;;;5057326;28;20089;-73
2023/10/20 11:46:26;;;;;;;0.50;0.35;;;;;;;;;;5056176;28;20045;-72
2023/10/20 11:48:53;;;;;;;0.90;0.30;;;;;;;;;;5056980;28;20060;-73
2023/10/20 11:51:21;;;;;;;1.00;0.32;;;;;;;;;;5055279;28;20056;-72
2023/10/20 11:53:48;;;;;;;0.40;0.30;;;;;;;;;;5056315;28;20041;-72
2023/10/20 11:56:15;;;;;;;1.15;0.30;;;;;;;;;;5059024;28;20049;-72
2023/10/20 11:58:44;;;;;;;0.50;0.30;;;;;;;;;;5066448;28;20057;-72
2023/10/20 12:01:11;;;;;;;0.50;0.25;;;;;;;;;;5060045;28;20514;-73
2023/10/20 12:03:39;;;;;;;0.50;0.28;;;;;;;;;;5064370;28;20056;-72
2023/10/20 12:06:06;;;;;;;0.30;0.20;;;;;;;;;;5061939;28;20135;-73
2023/10/20 12:08:34;;;;;;;0.55;0.30;;;;;;;;;;5059361;28;20488;-73
2023/10/20 12:11:02;;;;;;;1.10;0.60;;;;;;;;;;5060723;28;20056;-73
2023/10/20 12:13:29;;;;;;;0.25;0.20;;;;;;;;;;5064857;28;20498;-73
2023/10/20 12:15:57;;;;;;;0.30;0.30;;;;;;;;;;5053671;28;20064;-73
2023/10/20 12:18:25;;;;;;;0.70;0.30;;;;;;;;;;5059979;28;20063;-72
2023/10/20 12:20:53;;;;;;;1.02;0.30;;;;;;;;;;5053935;28;20094;-73
2023/10/20 12:23:20;;;;;;;1.00;0.35;;;;;;;;;;5056194;28;20052;-73
2023/10/20 12:25:48;;;;;;;0.45;0.22;;;;;;;;;;5053545;28;20044;-74
2023/10/20 12:28:16;;;;;;;0.93;0.30;;;;;;;;;;5062299;28;20052;-75
2023/10/20 12:30:44;;;;;;;0.65;0.20;;;;;;;;;;5064664;28;20049;-72
2023/10/20 12:33:13;;;;;;;0.80;0.40;;;;;;;;;;5060601;28;20490;-74
2023/10/20 12:35:40;;;;;;;0.60;0.30;;;;;;;;;;5054263;28;20061;-73
2023/10/20 12:38:07;;;;;;;0.20;0.20;;;;;;;;;;5063786;28;20548;-74
2023/10/20 12:40:35;;;;;;;0.60;0.30;;;;;;;;;;5058560;28;20052;-73
2023/10/20 12:43:05;;;;;;;4.30;0.30;;;;;;;;;;5049248;28;20044;-74
2023/10/20 12:45:33;;;;;;;0.68;0.30;;;;;;;;;;5060742;28;20080;-74
2023/10/20 12:48:01;;;;;;;0.98;0.30;;;;;;;;;;5054696;28;20498;-72
2023/10/20 12:50:32;;;;;;;2.42;0.30;;;;;;;;;;5049920;28;20084;-73
2023/10/20 12:52:59;;;;;;;0.45;0.35;;;;;;;;;;5062161;28;20114;-74
2023/10/20 12:55:27;;;;;;;4.75;0.75;;;;;;;;;;5058175;28;20056;-74
2023/10/20 12:57:54;;;;;;;1.88;0.35;;;;;;;;;;5060458;28;20053;-73
2023/10/20 13:00:21;;;;;;;0.70;0.30;;;;;;;;;;5062455;28;20052;-75
2023/10/20 13:02:50;;;;;;;0.43;0.30;;;;;;;;;;5062513;28;20079;-77
2023/10/20 13:05:17;;;;;;;2.90;0.40;;;;;;;;;;5056188;28;20049;-76
2023/10/20 13:07:46;;;;;;;0.65;0.30;;;;;;;;;;5057337;28;20052;-75
2023/10/20 13:10:13;;;;;;;2.05;0.40;;;;;;;;;;5058598;28;20052;-74
2023/10/20 13:12:40;;;;;;;0.93;0.30;;;;;;;;;;5065654;28;20052;-76
2023/10/20 13:15:09;;;;;;;1.13;0.20;;;;;;;;;;5060380;28;20067;-76
2023/10/20 13:17:36;;;;;;;0.60;0.30;;;;;;;;;;5053931;28;20143;-75
2023/10/20 13:20:05;;;;;;;0.88;0.30;;;;;;;;;;5057557;28;20067;-76
2023/10/20 13:22:33;;;;;;;0.50;0.20;;;;;;;;;;5058121;28;20080;-76
2023/10/20 13:25:02;;;;;;;1.00;0.30;;;;;;;;;;5063050;28;20056;-74
2023/10/20 13:27:29;;;;;;;1.55;0.22;;;;;;;;;;5059634;28;20048;-75
2023/10/20 13:29:57;;;;;;;0.43;0.20;;;;;;;;;;5066441;28;20044;-74
2023/10/20 13:32:24;;;;;;;0.40;0.20;;;;;;;;;;5056253;28;20489;-74
2023/10/20 13:34:52;;;;;;;1.98;0.30;;;;;;;;;;5062396;28;20052;-74
2023/10/20 13:37:18;;;;;;;0.40;0.25;;;;;;;;;;5059676;28;20048;-74
2023/10/20 13:39:45;;;;;;;1.20;0.30;;;;;;;;;;5061396;28;20049;-75
2023/10/20 13:42:14;;;;;;;1.08;0.30;;;;;;;;;;5055318;28;20072;-74
2023/10/20 13:44:42;;;;;;;0.40;0.22;;;;;;;;;;5056739;28;20098;-73
2023/10/20 13:47:09;;;;;;;0.40;0.25;;;;;;;;;;5068558;28;20084;-73
2023/10/20 13:49:37;;;;;;;0.20;0.20;;;;;;;;;;5061826;28;20055;-73
2023/10/20 13:52:04;;;;;;;1.25;0.38;;;;;;;;;;5060449;28;20097;-73
2023/10/20 13:54:33;;;;;;;0.55;0.20;;;;;;;;;;5058915;28;20064;-74
2023/10/20 13:57:00;;;;;;;1.67;0.30;;;;;;;;;;5062930;28;20062;-72
2023/10/20 13:59:29;;;;;;;0.15;0.10;;;;;;;;;;5068963;28;20036;-73
2023/10/20 14:01:56;;;;;;;0.22;0.20;;;;;;;;;;5063393;28;20048;-73
2023/10/20 14:04:24;;;;;;;0.35;0.20;;;;;;;;;;5059221;28;20037;-73
2023/10/20 14:06:52;;;;;;;0.57;0.22;;;;;;;;;;5061829;28;20049;-75
2023/10/20 14:09:19;;;;;;;0.30;0.30;;;;;;;;;;5060913;28;20049;-73
2023/10/20 14:11:46;;;;;;;0.85;0.30;;;;;;;;;;5068084;28;20058;-75
2023/10/20 14:14:14;;;;;;;0.30;0.20;;;;;;;;;;5063512;28;20049;-72
2023/10/20 14:16:42;;;;;;;0.52;0.20;;;;;;;;;;5061543;28;20126;-73
2023/10/20 14:19:09;;;;;;;2.72;1.75;;;;;;;;;;5063124;28;20059;-73
2023/10/20 14:21:37;;;;;;;0.20;0.10;;;;;;;;;;5068267;28;20056;-75
2023/10/20 14:24:04;;;;;;;0.50;0.20;;;;;;;;;;5064790;28;20049;-74
2023/10/20 14:26:31;;;;;;;0.52;0.20;;;;;;;;;;5058094;28;20053;-75
2023/10/20 14:28:59;;;;;;;0.22;0.20;;;;;;;;;;5057596;28;20049;-75
2023/10/20 14:31:30;;;;;;;0.28;0.20;;;;;;;;;;5065779;28;20059;-73
2023/10/20 14:33:59;;;;;;;0.55;0.40;;;;;;;;;;5064133;28;20492;-72
2023/10/20 14:36:26;;;;;;;0.30;0.28;;;;;;;;;;5057607;28;20048;-73
2023/10/20 14:38:54;;;;;;;0.40;0.30;;;;;;;;;;5062362;28;20044;-74
2023/10/20 14:41:22;;;;;;;0.40;0.20;;;;;;;;;;5060334;28;20098;-74
2023/10/20 14:43:49;;;;;;;0.30;0.20;;;;;;;;;;5061603;28;20052;-73
2023/10/20 14:46:16;;;;;;;0.52;0.20;;;;;;;;;;5059293;28;20060;-73
2023/10/20 14:48:43;;;;;;;0.28;0.20;;;;;;;;;;5060486;28;20045;-75
2023/10/20 14:51:13;;;;;;;0.35;0.20;;;;;;;;;;5061682;28;20055;-75
2023/10/20 14:53:40;;;;;;;1.50;0.32;;;;;;;;;;5062715;28;20052;-74
2023/10/20 14:56:08;;;;;;;0.60;0.30;;;;;;;;;;5056996;28;20520;-74
2023/10/20 14:58:35;;;;;;;0.28;0.20;;;;;;;;;;5061985;28;20049;-69
2023/10/20 15:01:02;;;;;;;0.70;0.40;;;;;;;;;;5058403;28;20092;-68
2023/10/20 15:03:30;;;;;;;0.98;0.30;;;;;;;;;;5059191;28;20048;-69
2023/10/20 15:05:58;;;;;;;0.40;0.20;;;;;;;;;;5064405;28;20495;-70
2023/10/20 15:08:26;;;;;;;3.22;0.43;;;;;;;;;;5063099;28;20059;-69
2023/10/20 15:10:54;;;;;;;0.35;0.15;;;;;;;;;;5067966;28;20492;-69